createdAt,value
2023-05-23T11:23:47.062Z,1040.63
2023-05-23T11:24:47.027Z,1018.13
2023-05-23T11:25:47.021Z,995.63
2023-05-23T11:26:46.991Z,973.13
2023-05-23T11:27:46.979Z,956.25
2023-05-23T11:28:46.983Z,967.50
2023-05-23T11:29:46.961Z,984.38
2023-05-23T11:30:46.932Z,1046.25
2023-05-23T11:31:46.957Z,922.50
2023-05-23T11:32:46.981Z,849.38
2023-05-23T11:33:46.878Z,855.00
2023-05-23T11:34:46.868Z,905.63
2023-05-23T11:37:18.895Z,635.63
2023-05-23T11:44:18.964Z,849.38
2023-05-23T11:45:18.957Z,888.75
2023-05-23T11:46:18.955Z,883.13
2023-05-23T11:47:18.981Z,877.50
2023-05-23T11:48:18.931Z,894.38
2023-05-23T11:49:18.873Z,905.63
2023-05-23T11:50:18.869Z,978.75
2023-05-23T11:51:18.860Z,1068.75
2023-05-23T11:52:18.833Z,1102.50
2023-05-23T11:53:18.825Z,967.50
2023-05-23T11:54:18.824Z,961.88
2023-05-23T11:55:18.802Z,945.00
2023-05-23T11:56:18.801Z,849.38
2023-05-23T11:57:18.776Z,787.50
2023-05-23T11:58:18.786Z,916.88
2023-05-23T11:59:18.742Z,978.75
2023-05-23T12:00:18.745Z,877.50
2023-05-23T12:01:18.714Z,821.25
2023-05-23T12:02:39.005Z,866.25
2023-05-23T12:03:38.945Z,832.50
2023-05-23T12:04:38.868Z,798.75
2023-05-23T12:08:25.913Z,883.13
2023-05-23T12:09:25.893Z,995.63
2023-05-23T12:10:25.908Z,973.13
2023-05-23T12:11:25.854Z,1029.38
2023-05-23T12:12:25.840Z,1001.25
2023-05-23T12:13:25.854Z,1051.88
2023-05-23T12:14:25.829Z,1141.88
2023-05-23T12:15:25.793Z,1254.38
2023-05-23T12:16:25.851Z,1181.25
2023-05-23T12:17:25.786Z,1181.25
2023-05-23T12:18:25.787Z,1181.25
2023-05-23T12:19:25.767Z,1175.63
2023-05-23T12:20:25.760Z,1158.75
2023-05-23T12:21:25.720Z,1164.38
2023-05-23T12:22:25.694Z,1164.38
2023-05-23T12:23:25.704Z,1192.50
2023-05-23T12:24:25.682Z,1220.63
2023-05-23T12:25:25.645Z,1321.88
2023-05-23T12:26:25.631Z,1490.63
2023-05-23T12:27:25.618Z,1518.75
2023-05-23T12:28:25.644Z,1321.88
2023-05-23T12:29:25.587Z,1209.38
2023-05-23T12:30:25.590Z,1136.25
2023-05-23T12:31:25.640Z,956.25
2023-05-23T12:32:25.566Z,787.50
2023-05-23T12:35:26.725Z,1051.88
2023-05-23T12:36:27.458Z,1186.88
2023-05-23T12:37:26.696Z,1276.88
2023-05-23T12:38:26.678Z,1350.00
2023-05-23T12:39:26.669Z,1395.00
2023-05-23T12:40:26.622Z,1333.13
2023-05-23T12:41:26.624Z,1271.25
2023-05-23T12:42:27.823Z,1310.63
2023-05-23T12:43:26.621Z,1215.00
2023-05-23T12:44:26.575Z,1080.00
2023-05-23T12:45:26.573Z,961.88
2023-05-23T12:46:26.597Z,855.00
2023-05-23T12:47:26.654Z,759.38
2023-05-23T12:50:22.067Z,956.25
2023-05-23T12:51:22.058Z,1068.75
2023-05-23T12:52:22.048Z,1147.50
2023-05-23T12:53:24.349Z,1215.00
2023-05-23T12:54:22.006Z,1299.38
2023-05-23T12:55:21.996Z,1271.25
2023-05-23T12:56:21.957Z,1175.63
2023-05-23T12:57:21.979Z,984.38
2023-05-23T12:58:21.946Z,911.25
2023-05-23T12:59:21.934Z,1035.00
2023-05-23T13:00:21.942Z,1063.13
2023-05-23T13:01:21.973Z,1051.88
2023-05-23T13:02:21.954Z,984.38
2023-05-23T13:03:21.927Z,1023.75
2023-05-23T13:04:21.990Z,843.75
2023-05-23T13:05:21.853Z,984.38
2023-05-23T13:06:21.810Z,787.50
2023-05-23T13:07:21.825Z,697.50
2023-05-23T13:14:10.104Z,838.13
2023-05-23T13:15:10.076Z,714.38
2023-05-23T13:40:57.688Z,916.88
2023-05-23T13:41:57.681Z,1023.75
2023-05-23T13:42:57.658Z,1209.38
2023-05-23T13:43:57.629Z,1372.50
2023-05-23T13:44:57.619Z,1434.38
2023-05-23T13:45:57.615Z,1389.38
2023-05-23T13:46:57.609Z,1226.25
2023-05-23T13:47:57.594Z,1091.25
2023-05-23T13:48:57.569Z,894.38
2023-05-23T13:49:57.533Z,748.13
2023-05-23T14:14:59.572Z,1108.13
2023-05-23T14:15:59.607Z,2868.75
2023-05-23T14:16:59.517Z,3375.00
2023-05-23T14:17:59.568Z,3470.63
2023-05-23T14:18:59.569Z,3346.88
2023-05-23T14:19:59.488Z,2908.13
2023-05-23T14:20:59.471Z,3172.50
2023-05-23T14:21:59.455Z,3076.88
2023-05-23T14:22:59.449Z,2818.13
2023-05-23T14:23:59.457Z,1845.00
2023-05-23T14:24:59.411Z,1569.38
2023-05-23T14:25:59.390Z,1743.75
2023-05-23T14:26:59.366Z,1906.88
2023-05-23T14:27:59.387Z,2109.38
2023-05-23T14:28:59.360Z,1170.00
2023-05-23T14:29:59.342Z,860.63
2023-05-23T14:32:07.721Z,967.50
2023-05-23T14:33:10.571Z,2559.38
2023-05-23T14:34:07.646Z,1462.50
2023-05-23T14:35:07.646Z,2233.13
2023-05-23T14:36:07.638Z,1670.63
2023-05-23T14:37:07.636Z,1181.25
2023-05-23T14:38:07.630Z,1226.25
2023-05-23T14:39:10.375Z,1271.25
2023-05-23T14:40:07.584Z,990.00
2023-05-23T14:41:07.550Z,1518.75
2023-05-23T14:42:07.568Z,2958.75
2023-05-23T14:43:07.592Z,3048.75
2023-05-23T14:44:07.568Z,2829.38
2023-05-23T15:00:06.833Z,2469.38
2023-05-23T15:02:05.706Z,2041.88
2023-05-23T15:03:05.653Z,2385.00
2023-05-23T15:04:05.743Z,2334.38
2023-05-23T15:05:05.596Z,2261.25
2023-05-23T15:06:05.577Z,2115.00
2023-05-23T15:07:05.566Z,2081.25
2023-05-23T15:08:05.537Z,2311.88
2023-05-23T15:09:05.552Z,2536.88
2023-05-23T15:10:05.530Z,2818.13
2023-05-23T15:11:05.501Z,2964.38
2023-05-23T15:12:05.541Z,3015.00
2023-05-23T15:13:05.508Z,2795.63
2023-05-23T15:14:05.476Z,2638.13
2023-05-23T15:15:05.504Z,1906.88
2023-05-23T15:16:05.497Z,2570.63
2023-05-23T15:17:05.433Z,1681.88
2023-05-23T15:18:05.508Z,1181.25
2023-05-23T15:19:05.516Z,1085.63
2023-05-23T15:20:07.229Z,1012.50
2023-05-23T15:21:05.392Z,810.00
2023-05-23T15:26:02.133Z,1541.25
2023-05-23T15:27:15.678Z,1670.63
2023-05-23T15:28:02.081Z,1558.13
2023-05-23T15:29:02.040Z,1552.50
2023-05-23T15:30:02.081Z,1929.38
2023-05-23T15:31:02.044Z,1068.75
2023-05-23T15:50:43.525Z,1777.50
2023-05-23T15:51:43.251Z,2261.25
2023-05-23T15:52:43.285Z,2295.00
2023-05-23T15:53:59.742Z,2064.38
2023-05-23T15:54:43.231Z,2216.25
2023-05-23T15:55:43.223Z,1440.00
2023-05-23T15:56:43.198Z,2120.63
2023-05-23T15:57:43.196Z,1861.88
2023-05-23T15:58:43.212Z,1906.88
2023-05-23T15:59:43.152Z,1726.88
2023-05-23T16:15:29.832Z,1411.88
2023-05-23T16:16:29.881Z,1569.38
2023-05-23T16:24:18.031Z,1597.50
2023-05-23T16:25:18.021Z,1563.75
2023-05-23T16:33:22.088Z,1231.88
2023-05-23T16:49:12.149Z,1406.25
2023-05-23T16:50:12.183Z,1518.75
2023-05-23T16:51:12.110Z,1586.25
2023-05-23T16:52:12.108Z,1575.00
2023-05-23T16:53:12.173Z,1614.38
2023-05-23T16:54:12.056Z,1614.38
2023-05-23T16:55:12.052Z,1518.75
2023-05-23T16:56:22.724Z,1361.25
